createdAt,value
2019-03-08T00:00:26.898Z,0.80
2019-03-08T00:01:25.040Z,0.90
2019-03-08T00:02:14.691Z,1.00
2019-03-08T00:03:05.170Z,0.80
2019-03-08T00:03:54.990Z,0.80
2019-03-08T00:04:45.145Z,0.85
2019-03-08T00:05:36.330Z,0.82
2019-03-08T00:06:26.315Z,0.93
2019-03-08T00:07:16.512Z,0.68
2019-03-08T00:08:05.938Z,0.70
2019-03-08T00:08:56.063Z,0.60
2019-03-08T00:09:46.387Z,0.75
2019-03-08T00:10:36.179Z,0.62
2019-03-08T00:11:26.187Z,0.60
2019-03-08T00:12:15.859Z,0.80
2019-03-08T00:13:05.850Z,0.93
2019-03-08T00:13:56.646Z,0.70
2019-03-08T00:14:47.164Z,0.70
2019-03-08T00:15:36.933Z,0.70
2019-03-08T00:16:26.722Z,0.80
2019-03-08T00:17:16.929Z,0.50
2019-03-08T00:18:08.515Z,0.60
2019-03-08T00:18:57.975Z,0.50
2019-03-08T00:19:48.913Z,0.60
2019-03-08T00:20:38.386Z,1.20
2019-03-08T00:21:27.967Z,0.50
2019-03-08T00:22:17.566Z,0.47
2019-03-08T00:23:08.238Z,0.60
2019-03-08T00:23:58.389Z,0.50
2019-03-08T00:24:48.061Z,0.70
2019-03-08T00:25:37.679Z,0.60
2019-03-08T00:26:27.684Z,0.60
2019-03-08T00:27:17.599Z,0.60
2019-03-08T00:28:07.393Z,0.60
2019-03-08T00:28:57.505Z,0.68
2019-03-08T00:29:47.459Z,0.70
2019-03-08T00:30:38.153Z,0.42
2019-03-08T00:31:28.175Z,0.62
2019-03-08T00:32:18.334Z,0.60
2019-03-08T00:33:08.052Z,0.57
2019-03-08T00:33:57.546Z,0.68
2019-03-08T00:34:48.746Z,0.68
2019-03-08T00:35:38.417Z,0.60
2019-03-08T00:36:28.324Z,0.60
2019-03-08T00:37:18.019Z,0.80
2019-03-08T00:38:08.578Z,0.78
2019-03-08T00:38:58.148Z,0.57
2019-03-08T00:39:48.010Z,0.80
2019-03-08T00:40:38.091Z,0.98
2019-03-08T00:41:28.877Z,0.78
2019-03-08T00:42:19.570Z,0.90
2019-03-08T00:43:09.362Z,0.88
2019-03-08T00:44:00.233Z,0.75
2019-03-08T00:44:50.529Z,0.70
2019-03-08T00:45:40.016Z,0.60
2019-03-08T00:46:29.620Z,0.60
2019-03-08T00:47:19.572Z,0.65
2019-03-08T00:48:09.395Z,0.93
2019-03-08T00:49:00.278Z,0.70
2019-03-08T00:49:50.187Z,0.50
2019-03-08T00:50:39.852Z,0.85
2019-03-08T00:51:29.976Z,0.60
2019-03-08T00:52:20.561Z,0.70
2019-03-08T00:53:10.335Z,0.70
2019-03-08T00:54:00.197Z,0.50
2019-03-08T00:54:50.757Z,0.50
2019-03-08T00:55:40.949Z,0.80
2019-03-08T00:56:31.308Z,0.60
2019-03-08T00:57:21.615Z,0.60
2019-03-08T00:58:11.214Z,0.60
2019-03-08T00:59:00.776Z,0.60
2019-03-08T00:59:51.324Z,0.60
2019-03-08T01:00:41.571Z,0.60
2019-03-08T01:01:31.133Z,0.90
2019-03-08T01:02:21.411Z,0.80
2019-03-08T01:03:11.709Z,0.60
2019-03-08T01:04:02.002Z,0.75
2019-03-08T01:04:51.654Z,0.90
2019-03-08T01:05:41.656Z,0.70
2019-03-08T01:06:31.395Z,0.55
2019-03-08T01:07:20.905Z,0.60
2019-03-08T01:08:12.319Z,0.80
2019-03-08T01:09:02.054Z,0.70
2019-03-08T01:09:52.266Z,0.75
2019-03-08T01:10:42.256Z,0.50
2019-03-08T01:11:32.161Z,0.50
2019-03-08T01:12:22.777Z,0.78
2019-03-08T01:13:12.700Z,0.70
2019-03-08T01:14:02.720Z,0.95
2019-03-08T01:14:52.981Z,0.68
2019-03-08T01:15:42.681Z,0.80
2019-03-08T01:16:32.672Z,0.80
2019-03-08T01:17:22.117Z,0.88
2019-03-08T01:18:11.850Z,0.80
2019-03-08T01:19:01.408Z,0.90
2019-03-08T01:19:51.389Z,0.90
2019-03-08T01:20:41.318Z,0.98
2019-03-08T01:21:31.425Z,1.00
2019-03-08T01:22:21.443Z,1.22
2019-03-08T01:23:11.075Z,0.82
2019-03-08T01:24:00.701Z,0.65
2019-03-08T01:24:50.940Z,0.65
2019-03-08T01:25:40.773Z,0.90
2019-03-08T01:26:30.403Z,0.80
2019-03-08T01:27:20.211Z,0.93
2019-03-08T01:28:11.215Z,0.70
2019-03-08T01:29:01.322Z,0.70
2019-03-08T01:29:51.977Z,0.72
2019-03-08T01:30:41.931Z,0.70
2019-03-08T01:31:32.493Z,0.93
2019-03-08T01:32:22.750Z,0.90
2019-03-08T01:33:12.625Z,0.80
2019-03-08T01:34:02.206Z,0.60
2019-03-08T01:34:51.916Z,0.93
2019-03-08T01:35:41.872Z,0.70
2019-03-08T01:36:31.791Z,0.78
2019-03-08T01:37:21.886Z,0.93
2019-03-08T01:38:12.028Z,0.90
2019-03-08T01:39:02.002Z,0.90
2019-03-08T01:39:51.836Z,0.80
2019-03-08T01:40:41.739Z,0.80
2019-03-08T01:41:31.697Z,0.72
2019-03-08T01:42:21.541Z,0.72
2019-03-08T01:43:12.013Z,0.70
2019-03-08T01:44:02.583Z,0.70
2019-03-08T01:44:52.393Z,0.90
2019-03-08T01:45:42.417Z,0.72
2019-03-08T01:46:32.231Z,0.82
2019-03-08T01:47:22.489Z,0.80
2019-03-08T01:48:12.344Z,0.60
2019-03-08T01:49:01.988Z,0.90
2019-03-08T01:49:52.366Z,0.80
2019-03-08T01:50:42.498Z,0.60
2019-03-08T01:51:32.611Z,0.60
2019-03-08T01:52:22.156Z,0.80
2019-03-08T01:53:12.338Z,0.70
2019-03-08T01:54:02.105Z,1.00
2019-03-08T01:54:53.499Z,0.70
2019-03-08T01:55:43.489Z,0.70
2019-03-08T01:56:33.473Z,0.78
2019-03-08T01:57:23.304Z,0.80
2019-03-08T01:58:13.147Z,0.90
2019-03-08T01:59:02.961Z,0.72
2019-03-08T01:59:52.483Z,0.95
2019-03-08T02:00:43.264Z,0.90
2019-03-08T02:01:32.986Z,0.70
2019-03-08T02:02:23.273Z,0.70
2019-03-08T02:03:13.323Z,0.90
2019-03-08T02:04:03.366Z,0.70
2019-03-08T02:04:53.547Z,0.70
2019-03-08T02:05:43.816Z,0.72
2019-03-08T02:06:33.451Z,0.70
2019-03-08T02:07:23.403Z,0.70
2019-03-08T02:08:13.132Z,0.70
2019-03-08T02:09:04.331Z,0.62
2019-03-08T02:09:54.032Z,0.62
2019-03-08T02:10:43.676Z,0.78
2019-03-08T02:11:33.822Z,0.70
2019-03-08T02:12:24.560Z,0.80
2019-03-08T02:13:14.515Z,0.70
2019-03-08T02:14:04.213Z,0.90
2019-03-08T02:14:53.964Z,0.80
2019-03-08T02:15:44.154Z,1.00
2019-03-08T02:16:33.821Z,0.88
2019-03-08T02:17:23.308Z,1.30
2019-03-08T02:18:13.471Z,1.20
2019-03-08T02:19:05.056Z,0.90
2019-03-08T02:19:54.465Z,0.80
2019-03-08T02:20:44.409Z,0.60
2019-03-08T02:21:34.252Z,0.70
2019-03-08T02:22:23.918Z,0.70
2019-03-08T02:23:14.179Z,0.70
2019-03-08T02:24:04.090Z,0.80
2019-03-08T02:24:54.312Z,0.90
2019-03-08T02:25:45.614Z,0.80
2019-03-08T02:26:34.702Z,0.80
2019-03-08T02:27:25.913Z,0.68
2019-03-08T02:28:15.691Z,0.50
2019-03-08T02:29:06.021Z,0.62
2019-03-08T02:29:55.852Z,0.53
2019-03-08T02:30:46.128Z,0.60
2019-03-08T02:31:36.019Z,0.80
2019-03-08T02:32:25.647Z,0.90
2019-03-08T02:33:15.185Z,0.78
2019-03-08T02:34:05.399Z,0.70
2019-03-08T02:34:55.738Z,0.60
2019-03-08T02:35:46.342Z,0.60
2019-03-08T02:36:35.851Z,0.60
2019-03-08T02:37:25.967Z,0.57
2019-03-08T02:38:16.736Z,0.68
2019-03-08T02:39:06.442Z,0.60
2019-03-08T02:39:56.389Z,0.40
2019-03-08T02:40:45.921Z,0.40
2019-03-08T02:41:35.852Z,0.40
2019-03-08T02:42:25.407Z,0.53
2019-03-08T02:43:16.265Z,0.30
2019-03-08T02:44:06.310Z,0.50
2019-03-08T02:44:55.742Z,0.60
2019-03-08T02:45:45.453Z,0.40
2019-03-08T02:46:34.969Z,0.40
2019-03-08T02:47:25.205Z,0.47
2019-03-08T02:48:15.054Z,0.53
2019-03-08T02:49:06.333Z,0.50
2019-03-08T02:49:54.311Z,0.37
2019-03-08T02:50:44.412Z,0.30
2019-03-08T02:51:34.244Z,0.47
2019-03-08T02:52:23.931Z,0.40
2019-03-08T02:53:13.601Z,0.30
2019-03-08T02:54:03.135Z,0.60
2019-03-08T02:54:52.740Z,0.40
2019-03-08T02:55:42.357Z,0.60
2019-03-08T02:56:32.524Z,0.40
2019-03-08T02:57:22.315Z,0.53
2019-03-08T02:58:12.415Z,0.40
2019-03-08T02:59:02.085Z,0.40
2019-03-08T02:59:52.408Z,0.50
2019-03-08T03:00:46.245Z,0.50
2019-03-08T03:01:36.603Z,0.50
2019-03-08T03:02:27.868Z,0.47
2019-03-08T03:03:18.177Z,0.40
2019-03-08T03:04:08.500Z,0.65
2019-03-08T03:04:58.891Z,0.40
2019-03-08T03:05:48.738Z,0.80
2019-03-08T03:06:38.467Z,0.88
2019-03-08T03:07:28.433Z,0.60
2019-03-08T03:08:17.943Z,0.30
2019-03-08T03:09:07.964Z,0.60
2019-03-08T03:09:58.202Z,0.57
2019-03-08T03:10:48.094Z,0.50
2019-03-08T03:11:38.269Z,0.50
2019-03-08T03:12:28.612Z,0.40
2019-03-08T03:13:18.805Z,0.60
2019-03-08T03:14:08.781Z,0.70
2019-03-08T03:14:58.890Z,0.70
2019-03-08T03:15:49.107Z,0.60
2019-03-08T03:16:40.565Z,0.78
2019-03-08T03:17:31.429Z,0.55
2019-03-08T03:18:21.015Z,0.57
2019-03-08T03:19:11.248Z,0.55
2019-03-08T03:20:01.473Z,0.45
2019-03-08T03:20:51.182Z,0.40
2019-03-08T03:21:41.338Z,0.50
2019-03-08T03:22:32.261Z,0.72
2019-03-08T03:23:21.977Z,0.60
2019-03-08T03:24:12.340Z,0.60
2019-03-08T03:25:01.877Z,0.60
2019-03-08T03:25:51.839Z,0.50
2019-03-08T03:26:41.512Z,0.50
2019-03-08T03:27:31.676Z,0.57
2019-03-08T03:28:21.574Z,0.70
2019-03-08T03:29:11.797Z,0.60
2019-03-08T03:30:01.454Z,0.78
2019-03-08T03:30:50.894Z,0.50
2019-03-08T03:31:41.015Z,0.62
2019-03-08T03:32:32.390Z,1.22
2019-03-08T03:33:22.201Z,0.55
2019-03-08T03:34:12.040Z,0.50
2019-03-08T03:35:02.569Z,0.70
2019-03-08T03:35:52.758Z,0.80
2019-03-08T03:36:43.465Z,0.70
2019-03-08T03:37:32.957Z,0.60
2019-03-08T03:38:22.655Z,0.72
2019-03-08T03:39:12.170Z,0.60
2019-03-08T03:40:02.142Z,0.85
2019-03-08T03:40:52.920Z,0.85
2019-03-08T03:41:42.979Z,0.57
2019-03-08T03:42:32.603Z,0.70
2019-03-08T03:43:23.427Z,0.60
2019-03-08T03:44:14.416Z,0.70
2019-03-08T03:45:04.318Z,0.65
2019-03-08T03:45:54.213Z,0.60
2019-03-08T03:46:43.950Z,0.50
2019-03-08T03:47:33.734Z,0.65
2019-03-08T03:48:23.847Z,0.65
2019-03-08T03:49:13.703Z,0.68
2019-03-08T03:50:03.819Z,0.68
2019-03-08T03:50:54.177Z,0.85
2019-03-08T03:51:44.250Z,1.07
2019-03-08T03:52:34.119Z,0.82
2019-03-08T03:53:24.091Z,0.60
2019-03-08T03:54:14.567Z,0.70
2019-03-08T03:55:04.486Z,1.02
2019-03-08T03:55:54.454Z,0.50
2019-03-08T03:56:44.769Z,0.60
2019-03-08T03:57:34.417Z,0.78
2019-03-08T03:58:23.934Z,0.68
2019-03-08T03:59:13.531Z,0.70
2019-03-08T04:00:04.031Z,0.70
2019-03-08T04:00:53.523Z,0.60
2019-03-08T04:01:45.348Z,0.70
2019-03-08T04:02:35.492Z,0.80
2019-03-08T04:03:25.113Z,0.68
2019-03-08T04:04:14.885Z,0.70
2019-03-08T04:05:04.959Z,0.80
2019-03-08T04:05:54.520Z,0.60
2019-03-08T04:06:44.151Z,0.80
2019-03-08T04:07:33.689Z,0.80
2019-03-08T04:08:24.158Z,0.70
2019-03-08T04:09:13.796Z,0.75
2019-03-08T04:10:03.979Z,0.80
2019-03-08T04:10:53.723Z,0.60
2019-03-08T04:11:43.214Z,0.75
2019-03-08T04:12:33.031Z,0.60
2019-03-08T04:13:22.885Z,0.80
2019-03-08T04:14:12.359Z,0.88
2019-03-08T04:15:01.878Z,0.70
2019-03-08T04:15:51.528Z,0.57
2019-03-08T04:16:42.073Z,0.60
2019-03-08T04:17:31.772Z,0.60
2019-03-08T04:18:22.425Z,0.75
2019-03-08T04:19:12.566Z,0.75
2019-03-08T04:20:02.206Z,2.02
2019-03-08T04:20:51.543Z,6.37
2019-03-08T04:21:41.360Z,3.10
2019-03-08T04:22:31.549Z,1.20
2019-03-08T04:23:22.215Z,0.85
2019-03-08T04:24:11.801Z,0.88
2019-03-08T04:25:01.418Z,1.00
2019-03-08T04:25:51.393Z,0.80
2019-03-08T04:26:41.043Z,0.75
2019-03-08T04:27:30.644Z,0.80
2019-03-08T04:28:20.737Z,0.70
2019-03-08T04:29:10.856Z,0.70
2019-03-08T04:30:00.620Z,0.70
2019-03-08T04:30:50.361Z,0.90
2019-03-08T04:31:40.741Z,0.80
2019-03-08T04:32:30.941Z,0.60
2019-03-08T04:33:20.511Z,0.75
2019-03-08T04:34:10.146Z,0.90
2019-03-08T04:35:00.391Z,0.70
2019-03-08T04:35:49.905Z,0.60
2019-03-08T04:36:39.882Z,0.57
2019-03-08T04:37:30.239Z,0.40
2019-03-08T04:38:21.218Z,0.75
2019-03-08T04:39:11.768Z,0.50
2019-03-08T04:40:02.081Z,0.50
2019-03-08T04:40:51.878Z,0.50
2019-03-08T04:41:41.403Z,0.60
2019-03-08T04:42:32.149Z,0.70
2019-03-08T04:43:21.992Z,0.62
2019-03-08T04:44:12.086Z,0.90
2019-03-08T04:45:01.843Z,0.75
2019-03-08T04:45:51.353Z,0.80
2019-03-08T04:46:41.034Z,0.62
2019-03-08T04:47:31.453Z,0.90
2019-03-08T04:48:21.863Z,0.80
2019-03-08T04:49:11.539Z,2.60
2019-03-08T04:50:01.144Z,2.00
2019-03-08T04:50:50.917Z,2.90
2019-03-08T04:51:40.512Z,4.03
2019-03-08T04:52:31.174Z,4.85
2019-03-08T04:53:21.203Z,4.55
2019-03-08T04:54:11.041Z,2.30
2019-03-08T04:55:00.717Z,2.30
2019-03-08T04:55:50.182Z,2.95
2019-03-08T04:56:39.836Z,4.72
2019-03-08T04:57:29.391Z,2.77
2019-03-08T04:58:19.405Z,2.02
2019-03-08T04:59:09.543Z,2.60
2019-03-08T04:59:59.557Z,9.98
2019-03-08T05:00:49.301Z,3.22
2019-03-08T05:01:38.742Z,3.40
2019-03-08T05:02:28.836Z,1.60
2019-03-08T05:03:19.033Z,0.70
2019-03-08T05:04:08.723Z,0.90
2019-03-08T05:04:58.198Z,1.15
2019-03-08T05:05:48.892Z,9.18
2019-03-08T05:06:39.313Z,8.48
2019-03-08T05:07:29.369Z,2.70
2019-03-08T05:08:18.930Z,7.65
2019-03-08T05:09:08.490Z,1.72
2019-03-08T05:09:58.272Z,0.68
2019-03-08T05:10:48.774Z,0.80
2019-03-08T05:11:39.222Z,0.60
2019-03-08T05:12:31.010Z,0.93
2019-03-08T05:13:19.341Z,0.90
2019-03-08T05:14:09.401Z,0.72
2019-03-08T05:14:59.076Z,1.00
2019-03-08T05:15:48.545Z,0.80
2019-03-08T05:16:38.742Z,0.70
2019-03-08T05:17:28.987Z,0.90
2019-03-08T05:18:18.609Z,0.80
2019-03-08T05:19:09.359Z,0.80
2019-03-08T05:20:00.322Z,0.98
2019-03-08T05:20:51.300Z,0.80
2019-03-08T05:21:42.194Z,0.80
2019-03-08T05:22:32.577Z,0.75
2019-03-08T05:23:22.284Z,0.60
2019-03-08T05:24:12.082Z,0.60
2019-03-08T05:25:02.879Z,0.70
2019-03-08T05:25:52.639Z,1.37
2019-03-08T05:26:42.574Z,1.30
2019-03-08T05:27:32.819Z,1.37
2019-03-08T05:28:22.798Z,1.15
2019-03-08T05:29:12.428Z,0.80
2019-03-08T05:30:02.460Z,0.80
2019-03-08T05:30:52.647Z,1.27
2019-03-08T05:31:42.715Z,1.20
2019-03-08T05:32:33.108Z,0.62
2019-03-08T05:33:23.118Z,0.90
2019-03-08T05:34:13.059Z,0.80
2019-03-08T05:35:03.063Z,0.90
2019-03-08T05:35:52.654Z,0.68
2019-03-08T05:36:42.284Z,0.70
2019-03-08T05:37:32.544Z,0.50
2019-03-08T05:38:22.127Z,0.60
2019-03-08T05:39:12.160Z,0.60
2019-03-08T05:40:01.829Z,0.50
2019-03-08T05:40:52.049Z,0.50
2019-03-08T05:41:42.826Z,0.90
2019-03-08T05:42:32.374Z,0.70
2019-03-08T05:43:22.641Z,0.42
2019-03-08T05:44:12.142Z,0.60
2019-03-08T05:45:02.304Z,0.80
2019-03-08T05:45:52.532Z,0.50
2019-03-08T05:46:42.554Z,0.62
2019-03-08T05:47:32.232Z,0.70
2019-03-08T05:48:22.505Z,0.70
2019-03-08T05:49:14.302Z,0.50
2019-03-08T05:50:04.225Z,0.70
2019-03-08T05:51:00.489Z,0.60
2019-03-08T05:51:56.986Z,0.50
2019-03-08T05:52:48.623Z,0.90
2019-03-08T05:53:38.916Z,0.60
2019-03-08T05:54:28.431Z,0.60
2019-03-08T05:55:19.295Z,0.72
2019-03-08T05:56:09.391Z,0.72
2019-03-08T05:57:00.314Z,0.60
2019-03-08T05:57:51.632Z,0.68
2019-03-08T05:58:41.971Z,0.80
2019-03-08T05:59:31.876Z,0.70
2019-03-08T06:00:31.531Z,0.60
2019-03-08T06:01:13.061Z,0.60
2019-03-08T06:02:02.836Z,0.55
2019-03-08T06:02:53.335Z,0.68
2019-03-08T06:03:43.346Z,0.60
2019-03-08T06:04:33.910Z,0.50
2019-03-08T06:05:23.576Z,0.60
2019-03-08T06:06:13.388Z,0.40
2019-03-08T06:07:03.982Z,0.60
2019-03-08T06:07:54.108Z,0.85
2019-03-08T06:08:44.110Z,0.75
2019-03-08T06:09:33.919Z,0.70
2019-03-08T06:10:27.342Z,0.60
2019-03-08T06:11:17.266Z,0.55
2019-03-08T06:12:06.770Z,0.72
2019-03-08T06:12:56.479Z,0.68
2019-03-08T06:13:45.986Z,0.90
2019-03-08T06:14:35.479Z,0.82
2019-03-08T06:15:42.665Z,0.80
2019-03-08T06:16:32.711Z,0.90
2019-03-08T06:17:25.816Z,0.70
2019-03-08T06:18:15.702Z,0.88
2019-03-08T06:19:05.637Z,0.60
2019-03-08T06:19:55.246Z,0.60
2019-03-08T06:20:45.468Z,0.68
2019-03-08T06:21:35.671Z,0.70
2019-03-08T06:22:25.800Z,0.72
2019-03-08T06:23:15.865Z,0.85
2019-03-08T06:24:06.435Z,0.70
2019-03-08T06:24:57.140Z,0.60
2019-03-08T06:25:47.228Z,0.75
2019-03-08T06:26:41.971Z,0.60
2019-03-08T06:28:56.335Z,0.50
2019-03-08T06:29:57.951Z,0.75
2019-03-08T06:31:00.027Z,0.60
2019-03-08T06:31:50.903Z,0.50
2019-03-08T06:32:40.889Z,0.60
2019-03-08T06:33:30.614Z,0.60
2019-03-08T06:34:20.851Z,0.68
2019-03-08T06:35:11.018Z,0.70
2019-03-08T06:36:00.766Z,0.50
2019-03-08T06:36:50.659Z,0.50
2019-03-08T06:37:40.676Z,0.60
2019-03-08T06:38:30.766Z,0.50
2019-03-08T06:39:20.545Z,0.60
2019-03-08T06:40:10.307Z,0.50
2019-03-08T06:41:00.679Z,0.70
2019-03-08T06:41:51.651Z,0.70
2019-03-08T06:42:42.369Z,0.47
2019-03-08T06:43:32.108Z,0.60
2019-03-08T06:44:21.999Z,0.60
2019-03-08T06:45:12.466Z,0.60
2019-03-08T06:46:02.698Z,0.60
2019-03-08T06:46:52.855Z,0.70
2019-03-08T06:47:42.660Z,0.80
2019-03-08T06:48:32.726Z,0.68
2019-03-08T06:49:22.530Z,0.60
2019-03-08T06:50:12.185Z,0.70
2019-03-08T06:51:01.835Z,0.60
2019-03-08T06:51:51.482Z,0.70
2019-03-08T06:52:41.100Z,0.62
2019-03-08T06:53:31.472Z,0.60
2019-03-08T06:54:21.573Z,0.57
2019-03-08T06:55:11.145Z,1.10
2019-03-08T06:56:00.740Z,0.80
2019-03-08T06:56:50.333Z,0.70
2019-03-08T06:57:40.588Z,0.65
2019-03-08T06:58:50.055Z,0.70
2019-03-08T06:59:53.060Z,0.70
2019-03-08T07:01:00.798Z,0.60
2019-03-08T07:01:51.249Z,0.70
2019-03-08T07:02:40.990Z,0.82
2019-03-08T07:03:31.101Z,0.90
2019-03-08T07:04:21.347Z,0.70
2019-03-08T07:05:11.724Z,0.80
2019-03-08T07:06:01.660Z,0.55
2019-03-08T07:06:52.418Z,0.80
2019-03-08T07:07:41.826Z,0.60
2019-03-08T07:08:32.072Z,0.60
2019-03-08T07:09:22.263Z,0.70
2019-03-08T07:10:12.530Z,0.57
2019-03-08T07:11:02.407Z,0.70
2019-03-08T07:11:52.112Z,0.65
2019-03-08T07:12:42.291Z,0.60
2019-03-08T07:13:32.092Z,0.68
2019-03-08T07:14:21.734Z,0.57
2019-03-08T07:15:12.154Z,0.40
2019-03-08T07:16:02.768Z,0.53
2019-03-08T07:16:52.595Z,0.47
2019-03-08T07:17:42.481Z,0.50
2019-03-08T07:18:32.897Z,0.60
2019-03-08T07:19:22.810Z,0.40
2019-03-08T07:20:26.490Z,0.60
2019-03-08T07:21:26.598Z,0.82
2019-03-08T07:22:35.818Z,0.65
2019-03-08T07:23:58.033Z,0.42
2019-03-08T07:25:06.094Z,0.70
2019-03-08T07:26:18.470Z,0.50
2019-03-08T07:27:20.461Z,0.80
2019-03-08T07:28:26.104Z,0.40
2019-03-08T07:29:34.254Z,0.45
2019-03-08T07:30:46.660Z,0.50
2019-03-08T07:31:59.300Z,0.60
2019-03-08T07:32:59.107Z,0.70
2019-03-08T07:34:11.521Z,0.70
2019-03-08T07:35:16.395Z,0.42
2019-03-08T07:36:28.454Z,0.57
2019-03-08T07:37:32.119Z,0.53
2019-03-08T07:38:40.141Z,0.42
2019-03-08T07:39:42.320Z,0.80
2019-03-08T07:40:47.237Z,0.68
2019-03-08T07:42:02.456Z,0.60
2019-03-08T07:43:01.560Z,0.50
2019-03-08T07:44:10.356Z,0.62
2019-03-08T07:45:16.163Z,0.50
2019-03-08T07:46:32.399Z,0.53
2019-03-08T07:47:48.775Z,0.50
2019-03-08T07:48:50.961Z,0.50
2019-03-08T07:50:02.505Z,0.70
2019-03-08T07:51:14.870Z,0.47
2019-03-08T07:52:14.946Z,0.50
2019-03-08T07:53:24.310Z,0.70
2019-03-08T07:54:32.250Z,0.80
2019-03-08T07:55:54.325Z,0.45
2019-03-08T07:57:12.711Z,1.40
2019-03-08T07:58:22.088Z,0.70
2019-03-08T07:59:37.384Z,0.53
2019-03-08T08:00:50.023Z,0.60
2019-03-08T08:01:49.835Z,0.60
2019-03-08T08:03:03.989Z,0.50
2019-03-08T08:04:02.660Z,0.60
2019-03-08T08:05:11.681Z,0.55
2019-03-08T08:06:19.138Z,0.60
2019-03-08T08:07:36.479Z,0.60
2019-03-08T08:08:54.916Z,0.60
2019-03-08T08:10:19.522Z,0.60
2019-03-08T08:11:28.210Z,0.70
2019-03-08T08:12:54.374Z,0.45
2019-03-08T08:14:02.771Z,0.68
2019-03-08T08:15:06.401Z,0.60
2019-03-08T08:16:14.645Z,0.80
2019-03-08T08:17:27.387Z,1.10
2019-03-08T08:18:31.436Z,0.50
2019-03-08T08:19:41.290Z,1.00
2019-03-08T08:21:01.248Z,1.05
2019-03-08T08:22:07.731Z,0.72
2019-03-08T08:23:17.268Z,0.50
2019-03-08T08:24:41.606Z,0.80
2019-03-08T08:25:53.621Z,0.65
2019-03-08T08:27:09.607Z,0.57
2019-03-08T08:28:22.105Z,0.62
2019-03-08T08:29:35.073Z,0.60
2019-03-08T08:30:40.070Z,0.70
2019-03-08T08:31:54.912Z,0.70
2019-03-08T08:33:13.543Z,0.60
2019-03-08T08:34:22.028Z,0.50
2019-03-08T08:35:33.482Z,0.60
2019-03-08T08:36:38.613Z,0.53
2019-03-08T08:37:46.768Z,0.60
2019-03-08T08:38:55.239Z,0.78
2019-03-08T08:40:11.895Z,0.60
2019-03-08T08:41:23.926Z,0.50
2019-03-08T08:42:45.675Z,0.72
2019-03-08T08:43:52.968Z,0.40
2019-03-08T08:45:02.062Z,0.60
2019-03-08T08:46:10.227Z,0.50
2019-03-08T08:47:32.164Z,0.65
2019-03-08T08:48:39.114Z,0.68
2019-03-08T08:49:54.329Z,0.80
2019-03-08T08:50:44.944Z,0.50
2019-03-08T08:51:42.375Z,0.70
2019-03-08T08:52:52.392Z,0.70
2019-03-08T08:54:02.025Z,0.40
2019-03-08T08:55:11.735Z,0.60
2019-03-08T08:56:19.844Z,0.50
2019-03-08T08:57:28.409Z,0.40
2019-03-08T08:58:27.237Z,0.68
2019-03-08T08:59:32.534Z,0.70
2019-03-08T09:00:35.323Z,0.82
2019-03-08T09:01:43.404Z,0.50
2019-03-08T09:02:54.055Z,1.22
2019-03-08T09:04:06.485Z,0.78
2019-03-08T09:05:12.370Z,0.50
2019-03-08T09:06:22.011Z,0.60
2019-03-08T09:07:34.272Z,0.55
2019-03-08T09:08:41.919Z,0.80
2019-03-08T09:09:53.695Z,0.82
2019-03-08T09:11:06.415Z,0.70
2019-03-08T09:12:10.267Z,0.57
2019-03-08T09:13:11.648Z,0.65
2019-03-08T09:14:23.569Z,1.07
2019-03-08T09:15:23.782Z,0.88
2019-03-08T09:16:29.109Z,1.00
2019-03-08T09:17:38.259Z,0.80
2019-03-08T09:18:39.129Z,0.70
2019-03-08T09:19:48.851Z,0.85
2019-03-08T09:20:58.413Z,0.90
2019-03-08T09:22:19.887Z,0.80
2019-03-08T09:23:22.303Z,0.80
2019-03-08T09:24:37.655Z,0.60
2019-03-08T09:25:49.457Z,0.82
2019-03-08T09:27:05.365Z,0.70
2019-03-08T09:28:30.840Z,1.20
2019-03-08T09:29:52.513Z,0.53
2019-03-08T09:30:49.247Z,0.60
2019-03-08T09:31:53.600Z,1.25
2019-03-08T09:33:03.257Z,0.70
2019-03-08T09:34:10.066Z,0.50
2019-03-08T09:35:31.394Z,0.57
2019-03-08T09:36:52.642Z,0.53
2019-03-08T09:38:15.178Z,0.70
2019-03-08T09:39:34.390Z,0.60
2019-03-08T09:40:42.174Z,0.60
2019-03-08T09:41:43.614Z,0.50
2019-03-08T09:42:44.755Z,0.60
2019-03-08T09:43:58.547Z,0.80
2019-03-08T09:45:07.135Z,0.62
2019-03-08T09:46:27.234Z,1.10
2019-03-08T09:47:36.924Z,0.70
2019-03-08T09:48:55.540Z,0.62
2019-03-08T09:49:58.613Z,0.60
2019-03-08T09:51:07.475Z,0.68
2019-03-08T09:52:14.053Z,0.60
2019-03-08T09:53:23.706Z,0.42
2019-03-08T09:54:39.436Z,0.50
2019-03-08T09:55:55.715Z,0.50
2019-03-08T09:57:07.261Z,0.60
2019-03-08T09:58:20.805Z,0.80
2019-03-08T09:59:28.302Z,0.65
2019-03-08T10:00:41.284Z,0.65
2019-03-08T10:01:42.978Z,0.40
2019-03-08T10:02:53.144Z,0.57
2019-03-08T10:03:49.957Z,0.53
2019-03-08T10:05:08.694Z,0.40
2019-03-08T10:06:28.216Z,0.70
2019-03-08T10:07:40.720Z,0.55
2019-03-08T10:08:59.547Z,0.47
2019-03-08T10:10:11.909Z,0.70
2019-03-08T10:11:15.365Z,0.60
2019-03-08T10:12:26.095Z,0.40
2019-03-08T10:13:32.084Z,0.50
2019-03-08T10:14:33.897Z,0.47
2019-03-08T10:15:30.783Z,0.60
2019-03-08T10:16:42.019Z,0.78
2019-03-08T10:17:51.277Z,0.80
2019-03-08T10:18:50.143Z,1.02
2019-03-08T10:19:49.803Z,1.00
2019-03-08T10:21:08.438Z,0.80
2019-03-08T10:22:16.623Z,0.80
2019-03-08T10:23:24.936Z,0.75
2019-03-08T10:24:34.558Z,0.60
2019-03-08T10:25:42.303Z,0.60
2019-03-08T10:26:40.062Z,0.60
2019-03-08T10:27:45.659Z,0.60
2019-03-08T10:28:53.957Z,0.60
2019-03-08T10:30:02.138Z,0.65
2019-03-08T10:31:16.700Z,0.75
2019-03-08T10:32:24.703Z,0.40
2019-03-08T10:33:46.468Z,0.60
2019-03-08T10:35:01.904Z,0.70
2019-03-08T10:36:17.769Z,0.47
2019-03-08T10:37:26.532Z,0.47
2019-03-08T10:38:39.307Z,0.70
2019-03-08T10:39:41.467Z,0.70
2019-03-08T10:40:48.126Z,0.62
2019-03-08T10:42:06.613Z,0.60
2019-03-08T10:43:12.038Z,0.68
2019-03-08T10:44:36.316Z,0.70
2019-03-08T10:46:00.111Z,1.20
2019-03-08T10:47:19.992Z,1.10
2019-03-08T10:48:24.017Z,0.90
2019-03-08T10:49:36.365Z,1.12
2019-03-08T10:50:38.944Z,1.10
2019-03-08T10:52:03.269Z,0.80
2019-03-08T10:53:06.058Z,1.20
2019-03-08T10:54:17.609Z,0.80
2019-03-08T10:55:46.550Z,0.60
2019-03-08T10:56:49.733Z,0.75
2019-03-08T10:57:57.250Z,0.80
2019-03-08T10:59:06.029Z,0.90
2019-03-08T11:00:21.978Z,1.00
2019-03-08T11:01:31.723Z,1.10
2019-03-08T11:02:44.939Z,0.60
2019-03-08T11:03:57.359Z,0.80
2019-03-08T11:05:33.732Z,0.78
2019-03-08T11:06:52.331Z,0.75
2019-03-08T11:08:00.473Z,1.32
2019-03-08T11:09:25.661Z,1.65
2019-03-08T11:10:38.345Z,2.00
2019-03-08T11:11:47.825Z,2.87
2019-03-08T11:12:45.270Z,3.10
2019-03-08T11:13:55.969Z,1.20
2019-03-08T11:15:24.719Z,1.10
2019-03-08T11:16:38.425Z,2.25
2019-03-08T11:17:51.547Z,1.75
2019-03-08T11:19:08.828Z,0.98
2019-03-08T11:20:26.144Z,0.90
2019-03-08T11:21:39.327Z,1.00
2019-03-08T11:22:55.210Z,0.93
2019-03-08T11:24:21.655Z,0.83
2019-03-08T11:25:34.923Z,1.10
2019-03-08T11:26:38.591Z,0.90
2019-03-08T11:27:47.770Z,0.80
2019-03-08T11:28:58.068Z,0.80
2019-03-08T11:30:19.652Z,0.90
2019-03-08T11:31:27.946Z,0.90
2019-03-08T11:32:40.263Z,0.70
2019-03-08T11:33:55.464Z,0.90
2019-03-08T11:35:00.023Z,0.87
2019-03-08T11:36:15.599Z,0.80
2019-03-08T11:37:28.473Z,0.70
2019-03-08T11:38:37.629Z,0.70
2019-03-08T11:40:02.405Z,0.90
2019-03-08T11:41:20.794Z,0.70
2019-03-08T11:43:56.409Z,0.90
2019-03-08T11:45:05.929Z,0.60
2019-03-08T11:46:04.070Z,0.80
2019-03-08T11:47:15.412Z,0.90
2019-03-08T11:48:14.539Z,0.60
2019-03-08T11:49:30.546Z,0.80
2019-03-08T11:50:42.143Z,0.70
2019-03-08T11:51:39.673Z,0.60
2019-03-08T11:52:43.266Z,0.72
2019-03-08T11:53:56.166Z,0.70
2019-03-08T11:54:58.499Z,0.90
2019-03-08T11:55:58.725Z,0.80
2019-03-08T11:57:11.669Z,0.70
2019-03-08T12:00:26.280Z,1.72
2019-03-08T12:01:30.395Z,1.92
2019-03-08T12:02:38.729Z,0.80
2019-03-08T12:03:46.826Z,0.80
2019-03-08T12:05:14.462Z,0.90
2019-03-08T12:08:40.132Z,0.70
2019-03-08T12:12:03.379Z,0.72
2019-03-08T12:13:15.632Z,0.60
2019-03-08T12:14:28.151Z,0.75
2019-03-08T12:15:43.677Z,0.80
2019-03-08T12:17:08.033Z,1.00
2019-03-08T12:18:20.839Z,0.75
2019-03-08T12:19:36.235Z,0.85
2019-03-08T12:20:55.263Z,0.93
2019-03-08T12:22:09.755Z,1.00
2019-03-08T12:23:23.449Z,0.75
2019-03-08T12:24:35.914Z,0.78
2019-03-08T12:25:57.601Z,0.60
2019-03-08T12:27:13.728Z,0.68
2019-03-08T12:28:29.652Z,0.78
2019-03-08T12:29:43.747Z,0.95
2019-03-08T12:30:56.210Z,0.85
2019-03-08T12:32:02.432Z,0.70
2019-03-08T12:33:25.084Z,0.60
2019-03-08T12:36:33.961Z,0.90
2019-03-08T12:37:32.559Z,1.30
2019-03-08T12:38:32.505Z,0.90
2019-03-08T12:39:41.495Z,0.95
2019-03-08T12:40:53.737Z,0.90
2019-03-08T12:41:52.982Z,1.20
2019-03-08T12:43:08.105Z,1.00
2019-03-08T12:44:13.473Z,0.88
2019-03-08T12:45:21.466Z,1.05
2019-03-08T12:46:41.062Z,1.07
2019-03-08T12:48:02.103Z,1.20
2019-03-08T12:49:03.240Z,1.45
2019-03-08T12:50:14.977Z,1.10
2019-03-08T12:51:24.540Z,1.00
2019-03-08T12:52:33.589Z,1.10
2019-03-08T12:53:40.036Z,1.10
2019-03-08T12:54:58.880Z,1.00